DAL759 KTPA-KATL
Flight info
| Callsign | DAL759 |
|---|---|
| Flight time | 1h 5m |
| Altitude | 34000 |
| Route | BAYPO2 CAMJO LAIRI LARZZ JJEDI4 |
| Aircraft | A321/M-SDE3FGHIRWY/LB1 |
Departure
| Time | 2026-05-07 21:53 |
|---|---|
| Airport | Tampa International Airport (KTPA) |
Arrival
| Time | 2026-05-07 22:58 |
|---|---|
| Airport | Hartsfield Jackson Atlanta International Airport (KATL) |
| Time | Latitude | Longitude | Altitude | Speed | Heading |
|---|---|---|---|---|---|
| 2026-05-07 21:17 | 27.98038 | -82.53883 | 44 ft | 0 kts | 91° |
| 2026-05-07 21:43 | 27.98038 | -82.53885 | 43 ft | 3 kts | 91° |
| 2026-05-07 21:43 | 27.98039 | -82.53906 | 44 ft | 3 kts | 103° |
| 2026-05-07 21:44 | 27.98046 | -82.53926 | 39 ft | 3 kts | 133° |
| 2026-05-07 21:44 | 27.98058 | -82.53940 | 41 ft | 2 kts | 137° |
| 2026-05-07 21:44 | 27.98071 | -82.53953 | 42 ft | 2 kts | 137° |
| 2026-05-07 21:44 | 27.98085 | -82.53966 | 45 ft | 3 kts | 162° |
| 2026-05-07 21:45 | 27.98104 | -82.53970 | 45 ft | 2 kts | 181° |
| 2026-05-07 21:45 | 27.98106 | -82.53970 | 46 ft | 0 kts | 181° |
| 2026-05-07 21:48 | 27.98090 | -82.53970 | 45 ft | 7 kts | 181° |
| 2026-05-07 21:49 | 27.98037 | -82.53992 | 47 ft | 8 kts | 239° |
| 2026-05-07 21:49 | 27.98050 | -82.54047 | 46 ft | 7 kts | 318° |
| 2026-05-07 21:49 | 27.98109 | -82.54052 | 47 ft | 10 kts | 2° |
| 2026-05-07 21:49 | 27.98205 | -82.54049 | 48 ft | 18 kts | 1° |
| 2026-05-07 21:50 | 27.98331 | -82.54044 | 48 ft | 17 kts | 2° |
| 2026-05-07 21:50 | 27.98448 | -82.54040 | 48 ft | 16 kts | 1° |
| 2026-05-07 21:50 | 27.98588 | -82.54035 | 48 ft | 23 kts | 1° |
| 2026-05-07 21:50 | 27.98747 | -82.54030 | 48 ft | 22 kts | 2° |
| 2026-05-07 21:51 | 27.98902 | -82.54025 | 47 ft | 22 kts | 2° |
| 2026-05-07 21:51 | 27.99048 | -82.54019 | 47 ft | 21 kts | 1° |
| 2026-05-07 21:51 | 27.99192 | -82.54015 | 46 ft | 20 kts | 1° |
| 2026-05-07 21:51 | 27.99308 | -82.54011 | 46 ft | 12 kts | 359° |
| 2026-05-07 21:52 | 27.99349 | -82.54070 | 46 ft | 10 kts | 274° |
| 2026-05-07 21:52 | 27.99327 | -82.54132 | 45 ft | 9 kts | 199° |
| 2026-05-07 21:52 | 27.99238 | -82.54137 | 47 ft | 27 kts | 181° |
| 2026-05-07 21:52 | 27.98809 | -82.54152 | 51 ft | 94 kts | 181° |
| 2026-05-07 21:53 | 27.97976 | -82.54180 | 48 ft | 144 kts | 181° |
| 2026-05-07 21:53 | 27.96858 | -82.54207 | 231 ft | 166 kts | 184° |
| 2026-05-07 21:53 | 27.95728 | -82.54243 | 838 ft | 161 kts | 190° |
| 2026-05-07 21:53 | 27.94626 | -82.54470 | 1430 ft | 162 kts | 196° |
| 2026-05-07 21:54 | 27.93488 | -82.54748 | 1831 ft | 175 kts | 197° |
| 2026-05-07 21:54 | 27.92238 | -82.55066 | 2015 ft | 194 kts | 197° |
| 2026-05-07 21:54 | 27.90847 | -82.55426 | 2127 ft | 216 kts | 197° |
| 2026-05-07 21:54 | 27.89375 | -82.55987 | 2248 ft | 233 kts | 216° |
| 2026-05-07 21:55 | 27.88265 | -82.57387 | 2511 ft | 249 kts | 247° |
| 2026-05-07 21:55 | 27.87881 | -82.59294 | 3157 ft | 253 kts | 272° |
| 2026-05-07 21:55 | 27.88289 | -82.61228 | 3872 ft | 257 kts | 298° |
| 2026-05-07 21:55 | 27.89463 | -82.62747 | 4600 ft | 262 kts | 326° |
| 2026-05-07 21:56 | 27.91178 | -82.63473 | 5315 ft | 269 kts | 353° |
| 2026-05-07 21:56 | 27.93061 | -82.63368 | 6030 ft | 274 kts | 4° |
| 2026-05-07 21:56 | 27.94966 | -82.63135 | 6726 ft | 277 kts | 4° |
| 2026-05-07 21:56 | 27.96897 | -82.62888 | 7343 ft | 281 kts | 4° |
| 2026-05-07 21:57 | 27.98858 | -82.62636 | 7948 ft | 286 kts | 4° |
| 2026-05-07 21:57 | 28.00853 | -82.62385 | 8551 ft | 291 kts | 4° |
| 2026-05-07 21:57 | 28.02879 | -82.62135 | 9164 ft | 295 kts | 3° |
| 2026-05-07 21:57 | 28.04938 | -82.61885 | 9791 ft | 300 kts | 3° |
| 2026-05-07 21:58 | 28.07034 | -82.61633 | 10200 ft | 312 kts | 3° |
| 2026-05-07 21:58 | 28.09264 | -82.61368 | 10326 ft | 333 kts | 3° |
| 2026-05-07 21:58 | 28.11599 | -82.61090 | 10448 ft | 352 kts | 3° |
| 2026-05-07 21:58 | 28.14106 | -82.60788 | 10822 ft | 361 kts | 3° |
| 2026-05-07 21:59 | 28.16612 | -82.60482 | 11366 ft | 364 kts | 3° |
| 2026-05-07 21:59 | 28.19144 | -82.60172 | 11933 ft | 367 kts | 3° |
| 2026-05-07 21:59 | 28.21699 | -82.59859 | 12503 ft | 371 kts | 2° |
| 2026-05-07 21:59 | 28.24273 | -82.59545 | 13090 ft | 373 kts | 2° |
| 2026-05-07 22:00 | 28.26866 | -82.59229 | 13669 ft | 376 kts | 2° |
| 2026-05-07 22:00 | 28.29443 | -82.58913 | 14198 ft | 379 kts | 2° |
| 2026-05-07 22:00 | 28.32074 | -82.58592 | 14725 ft | 382 kts | 2° |
| 2026-05-07 22:00 | 28.34758 | -82.58266 | 15260 ft | 384 kts | 2° |
| 2026-05-07 22:01 | 28.37422 | -82.58100 | 15792 ft | 383 kts | 354° |
| 2026-05-07 22:01 | 28.40087 | -82.58171 | 16321 ft | 385 kts | 354° |
| 2026-05-07 22:01 | 28.42772 | -82.58243 | 16854 ft | 387 kts | 354° |
| 2026-05-07 22:01 | 28.45439 | -82.58313 | 17368 ft | 389 kts | 354° |
| 2026-05-07 22:02 | 28.48156 | -82.58382 | 17904 ft | 392 kts | 353° |
| 2026-05-07 22:02 | 28.50890 | -82.58450 | 18400 ft | 395 kts | 353° |
| 2026-05-07 22:02 | 28.53646 | -82.58518 | 18832 ft | 397 kts | 353° |
| 2026-05-07 22:02 | 28.56416 | -82.58590 | 19259 ft | 399 kts | 353° |
| 2026-05-07 22:03 | 28.59201 | -82.58662 | 19680 ft | 402 kts | 353° |
| 2026-05-07 22:03 | 28.62006 | -82.58731 | 20097 ft | 404 kts | 353° |
| 2026-05-07 22:03 | 28.64824 | -82.58799 | 20507 ft | 407 kts | 353° |
| 2026-05-07 22:03 | 28.67650 | -82.58935 | 20919 ft | 405 kts | 348° |
| 2026-05-07 22:04 | 28.70457 | -82.59312 | 21321 ft | 407 kts | 347° |
| 2026-05-07 22:04 | 28.73276 | -82.59702 | 21726 ft | 409 kts | 347° |
| 2026-05-07 22:04 | 28.76110 | -82.60100 | 22123 ft | 412 kts | 346° |
| 2026-05-07 22:04 | 28.78963 | -82.60502 | 22512 ft | 414 kts | 346° |
| 2026-05-07 22:05 | 28.81831 | -82.60905 | 22900 ft | 417 kts | 346° |
| 2026-05-07 22:05 | 28.84717 | -82.61312 | 23262 ft | 419 kts | 346° |
| 2026-05-07 22:05 | 28.87619 | -82.61718 | 23629 ft | 422 kts | 346° |
| 2026-05-07 22:05 | 28.90539 | -82.62126 | 23948 ft | 424 kts | 346° |
| 2026-05-07 22:06 | 28.93471 | -82.62536 | 24265 ft | 426 kts | 346° |
| 2026-05-07 22:06 | 28.96421 | -82.62951 | 24571 ft | 428 kts | 346° |
| 2026-05-07 22:06 | 28.99383 | -82.63368 | 24888 ft | 430 kts | 346° |
| 2026-05-07 22:06 | 29.02358 | -82.63784 | 25203 ft | 432 kts | 346° |
| 2026-05-07 22:07 | 29.05350 | -82.64200 | 25512 ft | 434 kts | 346° |
| 2026-05-07 22:07 | 29.08352 | -82.64617 | 25836 ft | 436 kts | 346° |
| 2026-05-07 22:07 | 29.11366 | -82.65039 | 26146 ft | 438 kts | 346° |
| 2026-05-07 22:07 | 29.14396 | -82.65464 | 26452 ft | 439 kts | 346° |
| 2026-05-07 22:08 | 29.17437 | -82.65895 | 26762 ft | 441 kts | 346° |
| 2026-05-07 22:08 | 29.20490 | -82.66327 | 27065 ft | 443 kts | 345° |
| 2026-05-07 22:08 | 29.23558 | -82.66758 | 27377 ft | 445 kts | 345° |
| 2026-05-07 22:08 | 29.26638 | -82.67192 | 27680 ft | 447 kts | 345° |
| 2026-05-07 22:09 | 29.29730 | -82.67629 | 27974 ft | 449 kts | 345° |
| 2026-05-07 22:09 | 29.32792 | -82.68063 | 28259 ft | 450 kts | 345° |
| 2026-05-07 22:09 | 29.35953 | -82.68506 | 28530 ft | 452 kts | 345° |
| 2026-05-07 22:09 | 29.39083 | -82.68943 | 28805 ft | 454 kts | 345° |
| 2026-05-07 22:10 | 29.42242 | -82.69303 | 29090 ft | 461 kts | 350° |
| 2026-05-07 22:10 | 29.45425 | -82.69308 | 29363 ft | 465 kts | 352° |
| 2026-05-07 22:10 | 29.48671 | -82.69288 | 29629 ft | 467 kts | 352° |
| 2026-05-07 22:10 | 29.51970 | -82.69265 | 29906 ft | 469 kts | 352° |
| 2026-05-07 22:11 | 29.55186 | -82.69240 | 30223 ft | 468 kts | 352° |
| 2026-05-07 22:11 | 29.58442 | -82.69217 | 30545 ft | 467 kts | 352° |
| 2026-05-07 22:11 | 29.61690 | -82.69196 | 30877 ft | 466 kts | 352° |
| 2026-05-07 22:11 | 29.64927 | -82.69174 | 31219 ft | 465 kts | 352° |
| 2026-05-07 22:12 | 29.68159 | -82.69155 | 31567 ft | 464 kts | 352° |
| 2026-05-07 22:12 | 29.71381 | -82.69135 | 31914 ft | 463 kts | 352° |
| 2026-05-07 22:12 | 29.74596 | -82.69116 | 32250 ft | 462 kts | 351° |
| 2026-05-07 22:12 | 29.77803 | -82.69101 | 32605 ft | 460 kts | 351° |
| 2026-05-07 22:13 | 29.81004 | -82.69086 | 32964 ft | 459 kts | 351° |
| 2026-05-07 22:13 | 29.84195 | -82.69066 | 33323 ft | 458 kts | 351° |
| 2026-05-07 22:13 | 29.87379 | -82.69042 | 33673 ft | 457 kts | 351° |
| 2026-05-07 22:13 | 29.90558 | -82.69016 | 33949 ft | 457 kts | 351° |
| 2026-05-07 22:14 | 29.96844 | -82.68964 | 33993 ft | 448 kts | 351° |
| 2026-05-07 22:14 | 30.03057 | -82.68933 | 33993 ft | 445 kts | 351° |
| 2026-05-07 22:15 | 30.09243 | -82.68907 | 33989 ft | 444 kts | 351° |
| 2026-05-07 22:15 | 30.15423 | -82.68862 | 33980 ft | 444 kts | 351° |
| 2026-05-07 22:16 | 30.21601 | -82.68816 | 33982 ft | 444 kts | 351° |
| 2026-05-07 22:16 | 30.27779 | -82.68787 | 33990 ft | 444 kts | 351° |
| 2026-05-07 22:17 | 30.33960 | -82.68744 | 33999 ft | 444 kts | 351° |
| 2026-05-07 22:17 | 30.40140 | -82.68703 | 34001 ft | 444 kts | 351° |
| 2026-05-07 22:18 | 30.49409 | -82.68646 | 34019 ft | 444 kts | 351° |
| 2026-05-07 22:19 | 30.55623 | -82.68395 | 34029 ft | 449 kts | 355° |
| 2026-05-07 22:19 | 30.61867 | -82.67759 | 34036 ft | 451 kts | 357° |
| 2026-05-07 22:20 | 30.68122 | -82.67064 | 34039 ft | 451 kts | 356° |
| 2026-05-07 22:20 | 30.74365 | -82.66460 | 34034 ft | 450 kts | 356° |
| 2026-05-07 22:21 | 30.80617 | -82.65909 | 34010 ft | 451 kts | 356° |
| 2026-05-07 22:21 | 30.86888 | -82.65357 | 33990 ft | 452 kts | 356° |
| 2026-05-07 22:22 | 30.93169 | -82.64785 | 33981 ft | 453 kts | 356° |
| 2026-05-07 22:22 | 30.99468 | -82.64203 | 33980 ft | 454 kts | 356° |
| 2026-05-07 22:23 | 31.05772 | -82.63621 | 33981 ft | 455 kts | 356° |
| 2026-05-07 22:23 | 31.12091 | -82.63035 | 33983 ft | 456 kts | 355° |
| 2026-05-07 22:24 | 31.18413 | -82.62456 | 33987 ft | 456 kts | 355° |
| 2026-05-07 22:24 | 31.24739 | -82.61869 | 33978 ft | 456 kts | 355° |
| 2026-05-07 22:25 | 31.31061 | -82.61285 | 33980 ft | 456 kts | 355° |
| 2026-05-07 22:25 | 31.37390 | -82.60705 | 33982 ft | 456 kts | 354° |
| 2026-05-07 22:26 | 31.43711 | -82.60110 | 33984 ft | 456 kts | 354° |
| 2026-05-07 22:26 | 31.50031 | -82.59522 | 33990 ft | 455 kts | 354° |
| 2026-05-07 22:27 | 31.56349 | -82.58935 | 33992 ft | 455 kts | 354° |
| 2026-05-07 22:27 | 31.62657 | -82.58343 | 33995 ft | 454 kts | 354° |
| 2026-05-07 22:28 | 31.68958 | -82.57756 | 33988 ft | 454 kts | 354° |
| 2026-05-07 22:28 | 31.75252 | -82.57166 | 33984 ft | 454 kts | 354° |
| 2026-05-07 22:29 | 31.81539 | -82.56581 | 33980 ft | 453 kts | 354° |
| 2026-05-07 22:29 | 31.87822 | -82.56001 | 33967 ft | 453 kts | 354° |
| 2026-05-07 22:30 | 31.93970 | -82.56145 | 33975 ft | 429 kts | 338° |
| 2026-05-07 22:30 | 31.96786 | -82.57099 | 33977 ft | 414 kts | 328° |
| 2026-05-07 22:30 | 31.98501 | -82.58022 | 33960 ft | 406 kts | 321° |
| 2026-05-07 22:30 | 32.00838 | -82.59790 | 33961 ft | 394 kts | 313° |
| 2026-05-07 22:31 | 32.02908 | -82.61874 | 33959 ft | 390 kts | 310° |
| 2026-05-07 22:31 | 32.07008 | -82.66078 | 33958 ft | 391 kts | 310° |
| 2026-05-07 22:32 | 32.11125 | -82.70272 | 33964 ft | 391 kts | 310° |
| 2026-05-07 22:32 | 32.15242 | -82.74477 | 33965 ft | 391 kts | 310° |
| 2026-05-07 22:33 | 32.19355 | -82.78677 | 33968 ft | 391 kts | 310° |
| 2026-05-07 22:33 | 32.23509 | -82.82942 | 33579 ft | 402 kts | 310° |
| 2026-05-07 22:33 | 32.25604 | -82.85092 | 33272 ft | 396 kts | 311° |
| 2026-05-07 22:34 | 32.27683 | -82.87218 | 32961 ft | 393 kts | 311° |
| 2026-05-07 22:34 | 32.29742 | -82.89325 | 32660 ft | 391 kts | 311° |
| 2026-05-07 22:34 | 32.31792 | -82.91426 | 32361 ft | 389 kts | 311° |
| 2026-05-07 22:34 | 32.33831 | -82.93519 | 32064 ft | 387 kts | 311° |
| 2026-05-07 22:35 | 32.35861 | -82.95605 | 31768 ft | 386 kts | 311° |
| 2026-05-07 22:35 | 32.37880 | -82.97685 | 31494 ft | 384 kts | 311° |
| 2026-05-07 22:35 | 32.39897 | -82.99771 | 31218 ft | 388 kts | 311° |
| 2026-05-07 22:35 | 32.41942 | -83.01888 | 30992 ft | 393 kts | 311° |
| 2026-05-07 22:36 | 32.43999 | -83.04012 | 30592 ft | 392 kts | 311° |
| 2026-05-07 22:36 | 32.46053 | -83.06126 | 30002 ft | 391 kts | 311° |
| 2026-05-07 22:36 | 32.48100 | -83.08232 | 29352 ft | 389 kts | 311° |
| 2026-05-07 22:36 | 32.50134 | -83.10323 | 28776 ft | 386 kts | 311° |
| 2026-05-07 22:37 | 32.52152 | -83.12398 | 28206 ft | 383 kts | 311° |
| 2026-05-07 22:37 | 32.54154 | -83.14459 | 27633 ft | 380 kts | 311° |
| 2026-05-07 22:37 | 32.56140 | -83.16509 | 27063 ft | 377 kts | 311° |
| 2026-05-07 22:37 | 32.58086 | -83.18523 | 26506 ft | 375 kts | 311° |
| 2026-05-07 22:38 | 32.60045 | -83.20554 | 25954 ft | 373 kts | 311° |
| 2026-05-07 22:38 | 32.61992 | -83.22578 | 25409 ft | 371 kts | 311° |
| 2026-05-07 22:38 | 32.63926 | -83.24590 | 24877 ft | 369 kts | 311° |
| 2026-05-07 22:38 | 32.65850 | -83.26590 | 24357 ft | 366 kts | 311° |
| 2026-05-07 22:39 | 32.67759 | -83.28575 | 23849 ft | 364 kts | 311° |
| 2026-05-07 22:39 | 32.69658 | -83.30549 | 23329 ft | 362 kts | 311° |
| 2026-05-07 22:39 | 32.71542 | -83.32504 | 22816 ft | 357 kts | 311° |
| 2026-05-07 22:39 | 32.73397 | -83.34431 | 22346 ft | 352 kts | 311° |
| 2026-05-07 22:40 | 32.75229 | -83.36333 | 21877 ft | 347 kts | 311° |
| 2026-05-07 22:40 | 32.77035 | -83.38213 | 21408 ft | 343 kts | 311° |
| 2026-05-07 22:40 | 32.78821 | -83.40073 | 20940 ft | 340 kts | 311° |
| 2026-05-07 22:40 | 32.80590 | -83.41914 | 20467 ft | 337 kts | 311° |
| 2026-05-07 22:41 | 32.82347 | -83.43747 | 20000 ft | 335 kts | 311° |
| 2026-05-07 22:41 | 32.84093 | -83.45570 | 19528 ft | 333 kts | 311° |
| 2026-05-07 22:41 | 32.85830 | -83.47388 | 19030 ft | 332 kts | 311° |
| 2026-05-07 22:41 | 32.87561 | -83.49202 | 18548 ft | 331 kts | 311° |
| 2026-05-07 22:42 | 32.89287 | -83.51013 | 18029 ft | 331 kts | 311° |
| 2026-05-07 22:42 | 32.91014 | -83.52823 | 17505 ft | 330 kts | 311° |
| 2026-05-07 22:42 | 32.92732 | -83.54623 | 17030 ft | 328 kts | 311° |
| 2026-05-07 22:42 | 32.94441 | -83.56411 | 16548 ft | 326 kts | 311° |
| 2026-05-07 22:43 | 32.96142 | -83.58188 | 16082 ft | 325 kts | 311° |
| 2026-05-07 22:43 | 32.97835 | -83.59956 | 15619 ft | 323 kts | 311° |
| 2026-05-07 22:43 | 32.99519 | -83.61720 | 15152 ft | 322 kts | 311° |
| 2026-05-07 22:43 | 33.01197 | -83.63485 | 14680 ft | 321 kts | 311° |
| 2026-05-07 22:44 | 33.02870 | -83.65244 | 14227 ft | 321 kts | 311° |
| 2026-05-07 22:44 | 33.04543 | -83.67003 | 13763 ft | 321 kts | 311° |
| 2026-05-07 22:44 | 33.06217 | -83.68762 | 13258 ft | 321 kts | 312° |
| 2026-05-07 22:44 | 33.07888 | -83.70515 | 12786 ft | 319 kts | 312° |
| 2026-05-07 22:45 | 33.09542 | -83.72246 | 12541 ft | 311 kts | 312° |
| 2026-05-07 22:45 | 33.11139 | -83.73913 | 12407 ft | 299 kts | 312° |
| 2026-05-07 22:45 | 33.12676 | -83.75519 | 12282 ft | 288 kts | 312° |
| 2026-05-07 22:45 | 33.14164 | -83.77077 | 12042 ft | 282 kts | 312° |
| 2026-05-07 22:46 | 33.15636 | -83.78613 | 11776 ft | 280 kts | 312° |
| 2026-05-07 22:46 | 33.17092 | -83.80142 | 11499 ft | 278 kts | 311° |
| 2026-05-07 22:46 | 33.18524 | -83.81678 | 11185 ft | 276 kts | 311° |
| 2026-05-07 22:46 | 33.19929 | -83.83232 | 10864 ft | 274 kts | 310° |
| 2026-05-07 22:47 | 33.21288 | -83.84830 | 10553 ft | 274 kts | 309° |
| 2026-05-07 22:47 | 33.22627 | -83.86444 | 10218 ft | 273 kts | 309° |
| 2026-05-07 22:47 | 33.23960 | -83.88056 | 9895 ft | 272 kts | 309° |
| 2026-05-07 22:47 | 33.25289 | -83.89664 | 9557 ft | 272 kts | 309° |
| 2026-05-07 22:48 | 33.26622 | -83.91268 | 9143 ft | 272 kts | 310° |
| 2026-05-07 22:48 | 33.27956 | -83.92866 | 8746 ft | 271 kts | 310° |
| 2026-05-07 22:48 | 33.29288 | -83.94462 | 8354 ft | 271 kts | 310° |
| 2026-05-07 22:48 | 33.30618 | -83.96054 | 8012 ft | 269 kts | 310° |
| 2026-05-07 22:49 | 33.32103 | -83.97447 | 7829 ft | 276 kts | 322° |
| 2026-05-07 22:49 | 33.33745 | -83.98637 | 7571 ft | 276 kts | 324° |
| 2026-05-07 22:49 | 33.35399 | -83.99804 | 7306 ft | 276 kts | 324° |
| 2026-05-07 22:49 | 33.37053 | -84.00971 | 7060 ft | 275 kts | 324° |
| 2026-05-07 22:50 | 33.38702 | -84.02131 | 6804 ft | 275 kts | 324° |
| 2026-05-07 22:50 | 33.40350 | -84.03286 | 6558 ft | 275 kts | 324° |
| 2026-05-07 22:50 | 33.41997 | -84.04449 | 6319 ft | 275 kts | 324° |
| 2026-05-07 22:50 | 33.43640 | -84.05616 | 6073 ft | 274 kts | 324° |
| 2026-05-07 22:51 | 33.45273 | -84.06783 | 5824 ft | 273 kts | 324° |
| 2026-05-07 22:51 | 33.46906 | -84.07947 | 5578 ft | 273 kts | 324° |
| 2026-05-07 22:51 | 33.48537 | -84.09108 | 5333 ft | 272 kts | 324° |
| 2026-05-07 22:51 | 33.50157 | -84.10267 | 5104 ft | 269 kts | 324° |
| 2026-05-07 22:52 | 33.51742 | -84.11398 | 4887 ft | 262 kts | 324° |
| 2026-05-07 22:52 | 33.53296 | -84.12495 | 4640 ft | 257 kts | 324° |
| 2026-05-07 22:52 | 33.54816 | -84.13561 | 4388 ft | 249 kts | 324° |
| 2026-05-07 22:52 | 33.56292 | -84.14598 | 4139 ft | 242 kts | 324° |
| 2026-05-07 22:53 | 33.57729 | -84.15610 | 3886 ft | 238 kts | 324° |
| 2026-05-07 22:53 | 33.59134 | -84.16599 | 3671 ft | 230 kts | 324° |
| 2026-05-07 22:53 | 33.60421 | -84.17641 | 3459 ft | 216 kts | 308° |
| 2026-05-07 22:53 | 33.61253 | -84.19065 | 3270 ft | 205 kts | 296° |
| 2026-05-07 22:54 | 33.61936 | -84.20544 | 3087 ft | 201 kts | 294° |
| 2026-05-07 22:54 | 33.62591 | -84.22021 | 3001 ft | 200 kts | 294° |
| 2026-05-07 22:54 | 33.63122 | -84.23521 | 2997 ft | 197 kts | 277° |
| 2026-05-07 22:54 | 33.63179 | -84.25149 | 3001 ft | 195 kts | 268° |
| 2026-05-07 22:55 | 33.63176 | -84.26740 | 3008 ft | 181 kts | 267° |
| 2026-05-07 22:55 | 33.63176 | -84.28184 | 3011 ft | 168 kts | 266° |
| 2026-05-07 22:55 | 33.63176 | -84.29572 | 2911 ft | 165 kts | 267° |
| 2026-05-07 22:55 | 33.63177 | -84.30945 | 2740 ft | 164 kts | 267° |
| 2026-05-07 22:56 | 33.63178 | -84.32294 | 2543 ft | 157 kts | 267° |
| 2026-05-07 22:56 | 33.63180 | -84.33565 | 2363 ft | 147 kts | 266° |
| 2026-05-07 22:56 | 33.63180 | -84.34768 | 2166 ft | 141 kts | 267° |
| 2026-05-07 22:56 | 33.63181 | -84.35930 | 1983 ft | 139 kts | 267° |
| 2026-05-07 22:57 | 33.63180 | -84.37090 | 1804 ft | 138 kts | 268° |
| 2026-05-07 22:57 | 33.63179 | -84.38239 | 1636 ft | 139 kts | 270° |
| 2026-05-07 22:57 | 33.63179 | -84.39409 | 1445 ft | 139 kts | 271° |
| 2026-05-07 22:57 | 33.63180 | -84.40563 | 1275 ft | 138 kts | 274° |
| 2026-05-07 22:58 | 33.63181 | -84.41711 | 1074 ft | 137 kts | 274° |
| 2026-05-07 22:58 | 33.63180 | -84.42832 | 1006 ft | 125 kts | 271° |
| 2026-05-07 22:58 | 33.63183 | -84.43548 | 1008 ft | 58 kts | 270° |
| 2026-05-07 22:58 | 33.63183 | -84.43938 | 1004 ft | 23 kts | 270° |
| 2026-05-07 22:59 | 33.63212 | -84.44113 | 1005 ft | 20 kts | 290° |
| 2026-05-07 22:59 | 33.63271 | -84.44247 | 1006 ft | 14 kts | 312° |
| 2026-05-07 22:59 | 33.63352 | -84.44237 | 1006 ft | 12 kts | 39° |
| 2026-05-07 22:59 | 33.63423 | -84.44193 | 1006 ft | 11 kts | 3° |
| 2026-05-07 23:00 | 33.63499 | -84.44193 | 1007 ft | 10 kts | 0° |
| 2026-05-07 23:00 | 33.63567 | -84.44194 | 1007 ft | 10 kts | 360° |
| 2026-05-07 23:00 | 33.63634 | -84.44183 | 1007 ft | 10 kts | 23° |
| 2026-05-07 23:00 | 33.63663 | -84.44098 | 1007 ft | 13 kts | 88° |
| 2026-05-07 23:01 | 33.63664 | -84.43989 | 1007 ft | 13 kts | 90° |
| 2026-05-07 23:01 | 33.63664 | -84.43884 | 1006 ft | 13 kts | 90° |
| 2026-05-07 23:01 | 33.63663 | -84.43778 | 1006 ft | 12 kts | 90° |
| 2026-05-07 23:01 | 33.63663 | -84.43675 | 1006 ft | 14 kts | 90° |
| 2026-05-07 23:02 | 33.63663 | -84.43562 | 1006 ft | 13 kts | 90° |
| 2026-05-07 23:02 | 33.63664 | -84.43454 | 1006 ft | 13 kts | 90° |
| 2026-05-07 23:02 | 33.63664 | -84.43346 | 1006 ft | 12 kts | 90° |
| 2026-05-07 23:02 | 33.63664 | -84.43230 | 1006 ft | 16 kts | 89° |
| 2026-05-07 23:03 | 33.63667 | -84.43108 | 1006 ft | 12 kts | 75° |
| 2026-05-07 23:03 | 33.63733 | -84.43063 | 1006 ft | 11 kts | 1° |
| 2026-05-07 23:03 | 33.63811 | -84.43064 | 1006 ft | 11 kts | 360° |
| 2026-05-07 23:03 | 33.63859 | -84.43052 | 1006 ft | 5 kts | 51° |
| 2026-05-07 23:04 | 33.63861 | -84.43017 | 1006 ft | 4 kts | 89° |
| 2026-05-07 23:04 | 33.63862 | -84.42991 | 1006 ft | 3 kts | 89° |
| 2026-05-07 23:04 | 33.63862 | -84.42983 | 1006 ft | 0 kts | 89° |